Deer Creek, Wisconsin
Current Conditions -  °F | °C
As of 4:55 AM on Friday 31 Oct 2014 (Local Time) from KMDZ Reporting Station
Overcast Overcast  
Wind Chill: 17°   Ceiling: 2900
Heat Index: 29°   Visibility: 10mi
Dew Point: 22°   Wind: 17mph
Humidity: 77%   Direction: 350°N
Pressure: 30.26"   Gusts: 29mph
Location:  45.0778°N, 90.2576°W
Report Text: KMDZ 310955Z AUTO 35015G25KT 10SM BKN029 OVC034 M02/M05 A3026 RMK AO2 T10171053
Loading
Personal Weather Stations






























Interactive Weather Map
Tropical Storm Tracking
New forecast layout! Learn more

10-Day Weather Forecast

Advertisements
Track Severe Weather on mobile